Time;durP1;ratioP1;P1;durP2;ratioP2;P2;SDS_P1;SDS_P2;PMS_P1;PMS_P2;Temp;Humidity;BMP_temperature;BMP_pressure;BME280_temperature;BME280_humidity;BME280_pressure;Samples;Min_cycle;Max_cycle;Signal;HPM_P1;HPM_P2
2022/09/28 00:01:33;;;;;;;4.10;1.38;;;;;;;7.54;100.00;99552.22;5078798;28;20032;-65
2022/09/28 00:03:59;;;;;;;9.10;1.38;;;;;;;7.56;100.00;99553.09;5077858;28;20028;-65
2022/09/28 00:06:27;;;;;;;1.63;1.15;;;;;;;7.55;100.00;99548.72;5072211;28;20063;-66
2022/09/28 00:08:53;;;;;;;10.10;1.48;;;;;;;7.55;100.00;99552.22;5076984;28;20563;-65
2022/09/28 00:11:21;;;;;;;2.72;1.60;;;;;;;7.52;100.00;99548.72;5059692;28;20056;-65
2022/09/28 00:13:52;;;;;;;7.45;1.20;;;;;;;7.52;100.00;99546.09;5062837;28;20066;-65
2022/09/28 00:16:21;;;;;;;2.20;1.20;;;;;;;7.50;100.00;99540.84;5054014;28;20017;-65
2022/09/28 00:18:47;;;;;;;7.88;1.50;;;;;;;7.52;100.00;99546.09;5056293;28;20033;-65
2022/09/28 00:21:15;;;;;;;7.40;1.40;;;;;;;7.52;100.00;99543.47;5052530;28;20086;-65
2022/09/28 00:26:27;;;;;;;3.22;1.35;;;;;;;7.58;100.00;99549.66;5047313;28;20566;-66
2022/09/28 00:28:54;;;;;;;4.15;1.50;;;;;;;7.60;100.00;99547.03;5062752;28;20637;-65
2022/09/28 00:31:20;;;;;;;8.98;1.50;;;;;;;7.66;100.00;99562.78;5062547;28;20017;-66
2022/09/28 00:33:54;;;;;;;8.70;1.40;;;;;;;7.70;100.00;99574.16;5054477;28;20089;-65
2022/09/28 00:36:19;;;;;;;;;;;;;;;7.74;100.00;99570.69;5052128;28;20442;-65
2022/09/28 00:38:45;;;;;;;6.00;1.27;;;;;;;7.76;100.00;99569.84;5065267;28;19955;-65
2022/09/28 00:41:10;;;;;;;10.80;1.35;;;;;;;7.78;100.00;99556.75;5054192;28;20017;-65
2022/09/28 00:43:36;;;;;;;3.33;1.45;;;;;;;7.83;100.00;99569.91;5036076;28;20037;-65
2022/09/28 00:46:14;;;;;;;8.55;1.70;;;;;;;7.84;100.00;99593.47;5055476;28;20025;-65
2022/09/28 00:48:51;;;;;;;5.55;1.50;;;;;;;7.86;100.00;99596.97;5061400;28;20028;-65
2022/09/28 00:51:16;;;;;;;3.17;1.38;;;;;;;7.90;100.00;99579.53;5041762;28;20029;-66
2022/09/28 00:53:43;;;;;;;5.93;1.00;;;;;;;7.89;100.00;99564.69;5071785;28;20033;-66
2022/09/28 00:56:16;;;;;;;4.88;1.45;;;;;;;7.92;100.00;99543.75;5066173;28;20452;-65
2022/09/28 00:58:47;;;;;;;2.40;1.50;;;;;;;7.92;100.00;99543.75;5063598;28;20648;-65
2022/09/28 01:01:13;;;;;;;3.45;1.40;;;;;;;7.89;100.00;99539.34;5055731;28;20024;-65
2022/09/28 01:03:44;;;;;;;4.68;1.10;;;;;;;7.89;100.00;99538.50;5059931;28;20044;-65
2022/09/28 01:06:12;;;;;;;3.75;1.25;;;;;;;7.86;100.00;99541.09;5056859;28;20472;-65
2022/09/28 01:08:38;;;;;;;7.35;1.10;;;;;;;7.84;100.00;99533.25;5058209;28;20241;-66
2022/09/28 01:11:04;;;;;;;3.95;1.20;;;;;;;7.86;100.00;99548.97;5064598;28;20144;-66
2022/09/28 01:13:31;;;;;;;4.47;1.38;;;;;;;7.82;100.00;99541.94;5066055;28;20032;-66
2022/09/28 01:16:21;;;;;;;4.32;1.10;;;;;;;7.79;100.00;99541.94;5072678;28;20036;-66
2022/09/28 01:19:02;;;;;;;3.30;0.90;;;;;;;7.81;100.00;99553.28;5057203;28;20043;-66
2022/09/28 01:21:27;;;;;;;3.85;1.17;;;;;;;7.80;100.00;99557.66;5062549;28;20021;-66
2022/09/28 01:24:34;;;;;;;6.95;1.20;;;;;;;7.81;100.00;99548.03;5067541;28;20115;-66
2022/09/28 01:27:10;;;;;;;2.10;0.73;;;;;;;7.82;100.00;99536.72;5051030;28;20043;-66
2022/09/28 01:29:41;;;;;;;3.80;0.98;;;;;;;7.82;100.00;99541.94;5054671;28;20047;-66
2022/09/28 01:32:25;;;;;;;5.05;1.25;;;;;;;7.82;100.00;99532.34;5062494;28;20036;-66
2022/09/28 01:35:01;;;;;;;3.63;1.27;;;;;;;7.81;100.00;99537.56;5040806;28;20069;-66
2022/09/28 01:37:39;;;;;;;5.43;1.30;;;;;;;7.81;100.00;99527.09;5055108;28;20021;-66
2022/09/28 01:40:06;;;;;;;2.53;1.08;;;;;;;7.82;100.00;99521.88;5046703;28;20036;-65
2022/09/28 01:42:36;;;;;;;2.28;1.30;;;;;;;7.82;100.00;99521.88;5050380;28;20056;-66
2022/09/28 01:45:06;;;;;;;3.03;1.50;;;;;;;7.83;100.00;99528.88;5052918;28;20039;-65
2022/09/28 01:47:35;;;;;;;5.88;1.50;;;;;;;7.84;100.00;99537.59;5049048;28;20025;-65
2022/09/28 01:50:10;;;;;;;4.22;1.50;;;;;;;7.85;100.00;99531.50;5051421;28;20020;-66
2022/09/28 01:52:43;;;;;;;2.90;1.52;;;;;;;7.88;100.00;99536.75;5055573;28;20396;-65
2022/09/28 01:55:14;;;;;;;4.40;2.22;;;;;;;7.87;100.00;99545.47;5069610;28;20013;-66
2022/09/28 01:57:50;;;;;;;3.60;1.45;;;;;;;7.85;100.00;99545.44;5058864;28;20029;-65
2022/09/28 02:00:18;;;;;;;2.58;1.67;;;;;;;7.83;100.00;99548.94;5058893;28;20032;-66
2022/09/28 02:02:58;;;;;;;3.67;1.60;;;;;;;7.87;100.00;99546.34;5058314;28;20024;-66
2022/09/28 02:05:31;;;;;;;4.63;1.67;;;;;;;7.90;100.00;99538.50;5068779;28;20025;-65
2022/09/28 02:08:07;;;;;;;2.55;1.13;;;;;;;7.94;100.00;99537.66;5059733;28;20032;-66
2022/09/28 02:10:41;;;;;;;4.35;1.58;;;;;;;7.96;100.00;99535.03;5057375;28;20045;-66
2022/09/28 02:13:22;;;;;;;;;;;;;;;8.02;100.00;99550.81;5061934;28;20035;-65
2022/09/28 02:15:52;;;;;;;2.97;1.17;;;;;;;8.07;100.00;99540.34;5059323;28;19912;-66
2022/09/28 02:18:18;;;;;;;5.55;1.10;;;;;;;8.10;100.00;99543.00;5053226;28;20028;-66
2022/09/28 02:20:51;;;;;;;4.57;0.90;;;;;;;8.13;100.00;99542.16;5053628;28;20055;-65
2022/09/28 02:23:20;;;;;;;5.30;0.82;;;;;;;8.14;100.00;99544.78;5051840;28;20108;-66
2022/09/28 02:25:49;;;;;;;2.55;0.70;;;;;;;8.16;100.00;99543.00;5064198;28;20033;-65
2022/09/28 02:28:15;;;;;;;5.35;0.70;;;;;;;8.17;100.00;99538.66;5052568;28;20384;-66
2022/09/28 02:30:42;;;;;;;7.97;1.00;;;;;;;8.16;100.00;99544.78;5053418;28;20040;-65
2022/09/28 02:33:13;;;;;;;2.88;0.70;;;;;;;8.19;100.00;99550.03;5047985;28;20116;-65
2022/09/28 02:35:41;;;;;;;5.75;0.90;;;;;;;8.20;100.00;99550.03;5052541;28;20039;-66
2022/09/28 02:38:06;;;;;;;3.17;0.70;;;;;;;8.22;100.00;99544.78;5052319;28;20032;-66
2022/09/28 02:40:34;;;;;;;2.88;0.75;;;;;;;8.22;100.00;99544.78;5053347;28;20037;-65
2022/09/28 02:43:27;;;;;;;4.15;1.10;;;;;;;8.22;100.00;99542.16;5053234;28;20046;-65
2022/09/28 02:45:58;;;;;;;5.45;1.15;;;;;;;8.23;100.00;99543.94;5061681;28;20460;-65
2022/09/28 02:48:23;;;;;;;4.53;0.90;;;;;;;8.22;100.00;99542.16;5051982;28;20028;-65
2022/09/28 02:51:17;;;;;;;2.58;0.90;;;;;;;8.21;100.00;99543.06;5044550;28;20474;-66
2022/09/28 02:53:45;;;;;;;3.80;0.95;;;;;;;8.17;100.00;99539.53;5038785;28;20028;-65
2022/09/28 02:56:29;;;;;;;1.42;1.23;;;;;;;8.17;100.00;99536.91;5064411;28;20048;-65
2022/09/28 02:59:00;;;;;;;5.10;0.90;;;;;;;8.14;100.00;99550.00;5052156;28;20025;-66
2022/09/28 03:01:55;;;;;;;2.30;1.05;;;;;;;8.11;100.00;99557.81;5047131;28;20056;-65
2022/09/28 03:04:44;;;;;;;3.50;1.08;;;;;;;8.08;100.00;99556.09;5059891;28;20025;-66
2022/09/28 03:07:21;;;;;;;4.68;0.70;;;;;;;8.07;100.00;99543.84;5044449;28;20029;-65
2022/09/28 03:10:05;;;;;;;4.55;1.15;;;;;;;8.06;100.00;99549.97;5052259;28;20029;-66
2022/09/28 03:12:32;;;;;;;3.83;1.20;;;;;;;8.02;100.00;99552.56;5050690;28;20033;-65
2022/09/28 03:15:18;;;;;;;1.67;0.90;;;;;;;7.99;100.00;99549.91;5050220;28;20522;-65
2022/09/28 03:17:44;;;;;;;5.35;1.38;;;;;;;7.98;100.00;99549.03;5040057;28;20029;-65
2022/09/28 03:20:10;;;;;;;2.15;1.33;;;;;;;8.01;100.00;99553.41;5047715;28;20115;-65
2022/09/28 03:22:36;;;;;;;1.40;1.13;;;;;;;7.99;100.00;99549.91;5048268;28;20068;-65
2022/09/28 03:25:01;;;;;;;3.40;1.15;;;;;;;7.98;100.00;99548.16;5051772;28;20058;-65
2022/09/28 03:27:27;;;;;;;2.10;1.23;;;;;;;7.99;100.00;99552.53;5049755;28;20044;-65
2022/09/28 03:29:52;;;;;;;1.17;0.98;;;;;;;8.00;100.00;99549.91;5050424;28;20025;-65
2022/09/28 03:32:17;;;;;;;3.13;1.17;;;;;;;8.00;100.00;99549.91;5050897;28;20043;-65
2022/09/28 03:34:43;;;;;;;3.50;1.15;;;;;;;8.02;100.00;99553.41;5050641;28;20037;-65
2022/09/28 03:37:08;;;;;;;1.63;1.30;;;;;;;8.02;100.00;99561.28;5051141;28;20642;-65
2022/09/28 03:39:33;;;;;;;9.18;1.70;;;;;;;8.07;100.00;99570.06;5051654;28;20029;-65
2022/09/28 03:41:59;;;;;;;5.22;1.35;;;;;;;8.04;100.00;99570.00;5052126;28;20028;-66
2022/09/28 03:44:25;;;;;;;1.33;1.23;;;;;;;8.06;100.00;99562.19;5054954;28;20033;-66
2022/09/28 03:46:50;;;;;;;3.90;1.30;;;;;;;8.09;100.00;99563.06;5051912;28;20082;-66
2022/09/28 03:49:15;;;;;;;8.43;1.20;;;;;;;8.06;100.00;99567.44;5052125;28;20036;-66
2022/09/28 03:51:41;;;;;;;1.20;0.90;;;;;;;8.05;100.00;99561.28;5051974;28;20020;-65
2022/09/28 03:54:06;;;;;;;6.05;1.10;;;;;;;8.06;100.00;99560.44;5050692;28;20021;-66
2022/09/28 03:56:31;;;;;;;1.60;1.00;;;;;;;8.06;100.00;99542.09;5050465;28;20026;-66
2022/09/28 03:58:57;;;;;;;1.40;1.20;;;;;;;8.07;100.00;99543.84;5051473;28;20387;-65
2022/09/28 04:01:22;;;;;;;4.68;1.48;;;;;;;8.04;100.00;99546.44;5048521;28;20025;-66
2022/09/28 04:03:54;;;;;;;4.10;1.52;;;;;;;8.00;100.00;99542.03;5049670;28;20033;-65
2022/09/28 04:06:19;;;;;;;5.65;1.40;;;;;;;7.95;100.00;99538.53;5045638;28;20029;-65
2022/09/28 04:08:44;;;;;;;3.40;1.05;;;;;;;7.95;100.00;99546.41;5048548;28;20075;-66
2022/09/28 04:11:10;;;;;;;1.20;0.90;;;;;;;7.93;100.00;99546.41;5059616;28;20528;-66
2022/09/28 04:13:36;;;;;;;2.60;1.00;;;;;;;7.91;100.00;99553.34;5071177;28;20028;-66
2022/09/28 04:16:02;;;;;;;2.95;1.00;;;;;;;7.89;100.00;99551.59;5072195;28;20059;-65
2022/09/28 04:18:28;;;;;;;5.10;0.90;;;;;;;7.89;100.00;99543.72;5069227;28;20538;-65
2022/09/28 04:21:07;;;;;;;9.43;1.17;;;;;;;7.87;100.00;99550.72;5071169;28;20025;-65
2022/09/28 04:23:37;;;;;;;4.00;1.30;;;;;;;7.85;100.00;99552.44;5069783;28;20108;-65
2022/09/28 04:26:04;;;;;;;2.83;0.90;;;;;;;7.86;100.00;99554.19;5075059;28;20497;-65
2022/09/28 04:31:20;;;;;;;3.47;1.00;;;;;;;7.85;100.00;99552.44;5055201;28;20047;-65
2022/09/28 04:33:45;;;;;;;3.80;0.70;;;;;;;7.82;100.00;99552.44;5059200;28;20052;-65
2022/09/28 04:36:11;;;;;;;1.20;0.90;;;;;;;7.80;100.00;99549.81;5055197;28;20361;-65
2022/09/28 04:38:37;;;;;;;6.35;0.90;;;;;;;7.79;100.00;99550.66;5051647;28;20021;-65
2022/09/28 04:41:04;;;;;;;4.10;1.30;;;;;;;7.81;100.00;99555.91;5055041;28;20024;-66
2022/09/28 04:43:29;;;;;;;4.15;1.00;;;;;;;7.83;100.00;99556.81;5063741;28;20490;-65
2022/09/28 04:46:04;;;;;;;2.38;0.70;;;;;;;7.80;100.00;99565.50;5055146;28;20021;-65
2022/09/28 04:48:29;;;;;;;1.67;0.80;;;;;;;7.82;100.00;99562.91;5060124;28;20024;-65
2022/09/28 04:50:56;;;;;;;2.95;0.73;;;;;;;7.83;100.00;99565.53;5055378;28;20025;-66
2022/09/28 04:53:23;;;;;;;1.23;0.50;;;;;;;7.85;100.00;99563.78;5056623;28;20109;-65
2022/09/28 04:56:04;;;;;;;2.08;0.77;;;;;;;7.88;100.00;99561.19;5069568;28;20028;-65
2022/09/28 04:58:30;;;;;;;4.13;0.82;;;;;;;7.91;100.00;99557.72;5069428;28;20021;-66
2022/09/28 05:00:58;;;;;;;2.95;0.77;;;;;;;7.95;100.00;99554.25;5054766;28;20067;-66
2022/09/28 05:03:24;;;;;;;1.65;0.55;;;;;;;7.96;100.00;99556.00;5058154;28;20396;-65
2022/09/28 05:05:49;;;;;;;2.75;0.68;;;;;;;7.97;100.00;99554.28;5072518;28;20035;-66
2022/09/28 05:08:15;;;;;;;7.07;0.90;;;;;;;7.98;100.00;99559.50;5043574;28;20029;-66
2022/09/28 05:10:41;;;;;;;2.35;0.50;;;;;;;8.00;100.00;99556.91;5061507;28;20064;-66
2022/09/28 05:13:08;;;;;;;0.95;0.60;;;;;;;8.01;100.00;99559.53;5062168;28;20025;-66
2022/09/28 05:15:34;;;;;;;1.52;0.55;;;;;;;8.04;100.00;99558.66;5040689;28;20021;-66
2022/09/28 05:18:00;;;;;;;2.55;0.57;;;;;;;8.05;100.00;99571.78;5052888;28;20400;-66
2022/09/28 05:20:25;;;;;;;2.70;0.60;;;;;;;8.06;100.00;99572.66;5054498;28;20025;-66
2022/09/28 05:22:51;;;;;;;1.60;0.93;;;;;;;8.07;100.00;99577.91;5050313;28;20032;-65
2022/09/28 05:25:17;;;;;;;3.90;2.03;;;;;;;8.10;100.00;99580.53;5051940;28;20033;-66
2022/09/28 05:27:42;;;;;;;1.05;0.70;;;;;;;8.11;100.00;99586.66;5049696;28;20702;-66
2022/09/28 05:30:09;;;;;;;0.75;0.40;;;;;;;8.11;100.00;99591.88;5051453;28;20036;-65
2022/09/28 05:32:42;;;;;;;3.20;0.38;;;;;;;8.14;100.00;99581.44;5048340;28;20035;-65
2022/09/28 05:35:09;;;;;;;3.45;0.43;;;;;;;8.16;100.00;99574.47;5052709;28;20032;-65
2022/09/28 05:37:39;;;;;;;1.02;0.50;;;;;;;8.14;100.00;99567.44;5052925;28;20036;-65
2022/09/28 05:40:06;;;;;;;2.22;0.60;;;;;;;8.12;100.00;99556.09;5058967;28;20571;-65
2022/09/28 05:42:31;;;;;;;0.30;0.30;;;;;;;8.08;100.00;99555.19;5054484;28;20377;-65
2022/09/28 05:44:59;;;;;;;1.95;0.50;;;;;;;8.05;100.00;99557.81;5057124;28;20055;-65
2022/09/28 05:47:26;;;;;;;3.85;0.80;;;;;;;8.03;100.00;99555.19;5052122;28;20472;-66
2022/09/28 05:49:52;;;;;;;1.35;0.75;;;;;;;8.00;100.00;99555.16;5031600;28;20389;-66
2022/09/28 05:52:18;;;;;;;5.50;2.55;;;;;;;7.99;100.00;99556.03;5052153;28;20495;-65
2022/09/28 05:54:44;;;;;;;3.97;0.90;;;;;;;7.97;100.00;99563.00;5054866;28;20032;-66
2022/09/28 05:57:09;;;;;;;2.17;1.00;;;;;;;7.97;100.00;99572.59;5053081;28;20461;-68
2022/09/28 05:59:35;;;;;;;2.60;1.20;;;;;;;7.98;100.00;99562.13;5054388;28;20078;-67
2022/09/28 06:02:02;;;;;;;2.45;1.02;;;;;;;8.02;100.00;99565.66;5053203;28;20079;-66
2022/09/28 06:04:28;;;;;;;1.58;0.98;;;;;;;8.05;100.00;99560.44;5053141;28;20465;-66
2022/09/28 06:06:53;;;;;;;1.45;0.80;;;;;;;8.07;100.00;99563.91;5052766;28;20028;-65
2022/09/28 06:09:18;;;;;;;1.17;0.93;;;;;;;8.09;100.00;99565.69;5051021;28;20052;-68
2022/09/28 06:11:44;;;;;;;1.35;1.00;;;;;;;8.12;100.00;99569.19;5078826;28;20380;-67
2022/09/28 06:14:12;;;;;;;1.23;1.10;;;;;;;8.12;100.00;99572.69;5072666;28;20032;-65
2022/09/28 06:16:38;;;;;;;3.63;1.10;;;;;;;8.14;100.00;99575.31;5079805;28;20025;-68
2022/09/28 06:19:03;;;;;;;7.32;1.60;;;;;;;8.16;100.00;99570.97;5082994;28;20104;-67
2022/09/28 06:21:28;;;;;;;5.00;1.20;;;;;;;8.18;100.00;99577.09;5084062;28;20081;-67
2022/09/28 06:23:54;;;;;;;3.00;1.25;;;;;;;8.18;100.00;99577.97;5071979;28;20024;-67
2022/09/28 06:26:19;;;;;;;4.60;1.80;;;;;;;8.22;100.00;99578.84;5072827;28;20522;-71
2022/09/28 06:28:44;;;;;;;2.55;1.00;;;;;;;8.24;100.00;99580.63;5082060;28;20024;-68
2022/09/28 06:31:10;;;;;;;2.85;1.13;;;;;;;8.26;100.00;99585.88;5077551;28;20164;-67
2022/09/28 06:33:35;;;;;;;3.15;1.30;;;;;;;8.28;100.00;99578.91;5073910;28;20138;-67
2022/09/28 06:36:00;;;;;;;4.72;1.67;;;;;;;8.34;100.00;99586.81;5079598;28;20363;-67
2022/09/28 06:38:26;;;;;;;2.13;1.30;;;;;;;8.38;100.00;99596.44;5078258;28;20379;-67
2022/09/28 06:40:51;;;;;;;2.50;1.23;;;;;;;8.43;100.00;99594.69;5074828;28;20164;-67
2022/09/28 06:43:17;;;;;;;2.38;1.35;;;;;;;8.48;100.00;99600.00;5071336;28;20032;-67
2022/09/28 06:45:43;;;;;;;2.80;1.63;;;;;;;8.56;100.00;99605.28;5074450;28;20032;-67
2022/09/28 06:48:09;;;;;;;4.53;1.40;;;;;;;8.63;100.00;99607.06;5073217;28;20036;-67
2022/09/28 06:50:38;;;;;;;8.27;1.90;;;;;;;8.72;100.00;99603.59;5071880;28;20034;-67
2022/09/28 06:53:06;;;;;;;5.70;1.88;;;;;;;8.80;100.00;99603.63;5072327;28;20040;-67
2022/09/28 06:55:32;;;;;;;3.15;1.83;;;;;;;8.83;100.00;99603.63;5055009;28;20024;-68
2022/09/28 06:58:03;;;;;;;7.03;1.90;;;;;;;8.84;100.00;99594.91;5073301;28;20024;-68
2022/09/28 07:00:32;;;;;;;5.13;1.90;;;;;;;8.88;100.00;99601.91;5070884;28;20031;-67
2022/09/28 07:03:00;;;;;;;3.00;1.73;;;;;;;8.92;100.00;99598.44;5083849;28;20016;-67
2022/09/28 07:05:26;;;;;;;2.47;1.50;;;;;;;8.97;100.00;99604.56;5073052;28;20465;-67
2022/09/28 07:07:56;;;;;;;4.10;1.38;;;;;;;8.96;100.00;99604.56;5072618;28;20052;-67
2022/09/28 07:10:29;;;;;;;3.80;1.63;;;;;;;9.00;100.00;99606.34;5055294;28;20045;-67
2022/09/28 07:12:56;;;;;;;4.47;1.50;;;;;;;8.94;100.00;99607.19;5052663;28;20035;-67
2022/09/28 07:15:22;;;;;;;6.60;1.67;;;;;;;8.86;100.00;99612.41;5052246;28;20025;-67
2022/09/28 07:17:48;;;;;;;3.20;1.42;;;;;;;8.89;100.00;99611.53;5057780;28;20055;-67
2022/09/28 07:20:14;;;;;;;5.93;1.88;;;;;;;8.90;100.00;99608.06;5051294;28;20048;-67
2022/09/28 07:22:39;;;;;;;6.55;2.22;;;;;;;8.96;100.00;99610.69;5051733;28;20074;-67
2022/09/28 07:25:06;;;;;;;3.60;1.58;;;;;;;9.01;100.00;99618.59;5050629;28;20033;-67
2022/09/28 07:27:31;;;;;;;6.25;1.65;;;;;;;9.07;100.00;99618.59;5032867;28;20055;-65
2022/09/28 07:29:57;;;;;;;3.15;1.50;;;;;;;9.13;100.00;99618.63;5052393;28;20461;-67
2022/09/28 07:32:23;;;;;;;5.05;2.30;;;;;;;9.20;100.00;99615.13;5051768;28;20036;-74
2022/09/28 07:34:49;;;;;;;3.30;1.70;;;;;;;9.30;100.00;99616.00;5032771;28;20026;-66
2022/09/28 07:37:15;;;;;;;2.97;1.75;;;;;;;9.36;100.00;99621.28;5037156;28;20013;-67
2022/09/28 07:42:29;;;;;;;7.55;1.85;;;;;;;9.47;100.00;99618.69;5057856;28;20451;-66
2022/09/28 07:44:55;;;;;;;6.10;2.60;;;;;;;9.49;100.00;99622.16;5064567;28;20032;-65
2022/09/28 07:47:25;;;;;;;7.38;1.73;;;;;;;9.56;100.00;99617.81;5052765;28;20029;-66
2022/09/28 07:49:58;;;;;;;7.10;2.75;;;;;;;9.68;100.00;99628.31;5055101;28;20017;-66
2022/09/28 07:52:25;;;;;;;4.90;2.45;;;;;;;9.69;100.00;99622.19;5046529;28;20393;-66
2022/09/28 07:54:54;;;;;;;8.02;1.50;;;;;;;9.72;100.00;99624.81;5055293;28;20029;-66
2022/09/28 07:57:21;;;;;;;4.70;1.80;;;;;;;9.78;100.00;99635.34;5056018;28;20035;-66
2022/09/28 07:59:52;;;;;;;3.60;1.80;;;;;;;9.93;100.00;99636.22;5053121;28;20057;-66
2022/09/28 08:02:21;;;;;;;5.25;1.40;;;;;;;9.98;100.00;99639.69;5050422;28;20041;-66
2022/09/28 08:04:48;;;;;;;4.10;1.40;;;;;;;9.98;100.00;99633.56;5055018;28;20028;-66
2022/09/28 08:07:14;;;;;;;4.95;1.15;;;;;;;10.13;100.00;99641.44;5054152;28;20043;-66
2022/09/28 08:09:41;;;;;;;2.85;0.98;;;;;;;10.23;100.00;99642.31;5054590;28;20132;-66
2022/09/28 08:12:07;;;;;;;2.92;0.80;;;;;;;10.34;100.00;99644.94;5073923;28;20048;-66
2022/09/28 08:14:33;;;;;;;3.10;1.00;;;;;;;10.38;100.00;99651.97;5074096;28;20472;-67
2022/09/28 08:17:00;;;;;;;2.88;0.90;;;;;;;10.44;100.00;99655.47;5076561;28;20357;-66
2022/09/28 08:19:25;;;;;;;1.85;0.90;;;;;;;10.57;100.00;99658.06;5072340;28;20082;-66
2022/09/28 08:21:50;;;;;;;2.90;0.85;;;;;;;10.62;100.00;99656.28;5075843;28;20029;-67
2022/09/28 08:24:16;;;;;;;1.83;0.88;;;;;;;10.70;100.00;99658.88;5056915;28;20040;-66
2022/09/28 08:26:43;;;;;;;3.38;0.98;;;;;;;10.75;100.00;99660.63;5077219;28;20029;-66
2022/09/28 08:29:08;;;;;;;5.43;0.93;;;;;;;10.89;100.00;99657.06;5074149;28;20025;-66
2022/09/28 08:31:34;;;;;;;3.92;0.80;;;;;;;10.91;100.00;99660.59;5074072;28;20039;-66
2022/09/28 08:34:00;;;;;;;4.80;1.08;;;;;;;10.98;100.00;99659.66;5074208;28;20027;-66
2022/09/28 08:36:27;;;;;;;1.50;0.88;;;;;;;11.18;100.00;99658.69;5075689;28;20034;-66
2022/09/28 08:38:52;;;;;;;2.25;0.73;;;;;;;11.29;100.00;99664.78;5073851;28;20027;-66
2022/09/28 08:41:51;;;;;;;3.67;0.60;;;;;;;11.35;100.00;99669.16;5073975;28;20033;-64
2022/09/28 08:44:25;;;;;;;1.73;0.75;;;;;;;11.34;100.00;99665.66;5073649;28;20036;-64
2022/09/28 08:50:06;;;;;;;4.97;0.88;;;;;;;11.48;100.00;99674.31;5066115;28;20066;-64
2022/09/28 08:52:38;;;;;;;3.35;1.10;;;;;;;11.46;100.00;99681.38;5069795;28;20521;-64
2022/09/28 08:55:29;;;;;;;6.25;0.70;;;;;;;11.54;100.00;99681.31;5073627;28;20032;-64
2022/09/28 08:58:09;;;;;;;1.20;0.68;;;;;;;11.59;100.00;99694.47;5073673;28;20044;-65
2022/09/28 09:00:40;;;;;;;1.05;0.60;;;;;;;11.44;100.00;99691.03;5072602;28;20425;-65
2022/09/28 09:03:10;;;;;;;1.08;0.47;;;;;;;11.23;100.00;99696.41;5074457;28;20104;-65
2022/09/28 09:05:46;;;;;;;4.65;0.50;;;;;;;11.18;100.00;99695.53;5074154;28;20369;-65
2022/09/28 09:08:41;;;;;;;1.08;0.73;;;;;;;10.90;100.00;99687.78;5073509;28;20028;-65
2022/09/28 09:11:28;;;;;;;1.73;0.50;;;;;;;10.80;100.00;99708.84;5061470;28;20471;-65
2022/09/28 09:14:26;;;;;;;1.10;0.50;;;;;;;10.75;100.00;99704.50;5050952;28;20029;-65
2022/09/28 09:16:56;;;;;;;1.85;0.50;;;;;;;10.68;100.00;99711.50;5042289;28;20037;-65
2022/09/28 09:19:48;;;;;;;1.95;0.60;;;;;;;10.65;100.00;99711.53;5054133;28;20488;-65
2022/09/28 09:22:29;;;;;;;3.60;0.73;;;;;;;10.80;100.00;99708.84;5056632;28;21254;-65
2022/09/28 09:25:14;;;;;;;3.55;1.00;;;;;;;10.99;100.00;99706.19;5046963;28;20036;-65
2022/09/28 09:28:07;;;;;;;4.07;1.30;;;;;;;11.35;100.00;99709.50;5052401;28;20025;-65
2022/09/28 09:30:50;;;;;;;1.95;0.85;;;;;;;11.63;100.00;99709.38;5054166;28;20043;-64
2022/09/28 09:33:35;;;;;;;2.20;0.85;;;;;;;11.90;100.00;99704.81;5053757;28;20174;-65
2022/09/28 09:36:07;;;;;;;3.33;1.42;;;;;;;12.16;100.00;99704.63;5052565;28;20025;-65
2022/09/28 09:39:05;;;;;;;2.00;0.50;;;;;;;12.43;100.00;99707.94;5049123;28;20032;-65
2022/09/28 09:41:49;;;;;;;5.13;0.52;;;;;;;12.69;100.00;99701.50;5049579;28;20116;-66
2022/09/28 09:44:23;;;;;;;5.18;0.57;;;;;;;12.82;100.00;99709.28;5049277;28;20031;-66
2022/09/28 09:47:16;;;;;;;2.10;0.40;;;;;;;13.02;100.00;99699.38;5056358;28;20049;-66
2022/09/28 09:49:47;;;;;;;4.05;0.57;;;;;;;13.25;100.00;99702.63;5060348;28;20482;-66
2022/09/28 09:52:25;;;;;;;0.90;0.40;;;;;;;13.57;100.00;99700.47;5056452;28;20029;-65
2022/09/28 09:54:54;;;;;;;0.30;0.30;;;;;;;13.81;100.00;99708.03;5054810;28;20467;-66
2022/09/28 09:57:25;;;;;;;2.30;0.47;;;;;;;13.78;100.00;99701.91;5057573;28;20082;-65
2022/09/28 09:59:51;;;;;;;1.85;0.47;;;;;;;13.75;100.00;99697.53;5051078;28;20033;-67
2022/09/28 10:02:26;;;;;;;2.63;0.43;;;;;;;13.98;100.00;99704.25;5050200;28;20039;-65
2022/09/28 10:04:56;;;;;;;2.90;0.50;;;;;;;14.22;100.00;99713.56;5057470;28;20024;-65
2022/09/28 10:07:24;;;;;;;4.05;0.50;;;;;;;14.47;100.00;99706.09;5059309;28;20070;-66
2022/09/28 10:09:54;;;;;;;3.72;0.40;;;;;;;14.42;100.00;99710.59;5052140;28;20477;-65
2022/09/28 10:12:21;;;;;;;1.13;0.45;;;;;;;14.41;100.00;99708.81;5046841;28;20134;-65
2022/09/28 10:14:48;;;;;;;0.98;0.30;;;;;;;14.39;100.00;99704.47;5048381;28;20032;-66
2022/09/28 10:17:18;;;;;;;0.52;0.40;;;;;;;14.33;100.00;99710.72;5042590;28;20024;-66
2022/09/28 10:19:44;;;;;;;1.67;1.23;;;;;;;14.29;100.00;99714.34;5048863;28;20387;-66
2022/09/28 10:22:15;;;;;;;1.95;0.50;;;;;;;13.97;100.00;99703.38;5047935;28;20358;-66
2022/09/28 10:24:46;;;;;;;0.65;0.47;;;;;;;13.74;100.00;99714.31;5050002;28;20021;-65
2022/09/28 10:27:22;;;;;;;0.73;0.30;;;;;;;13.83;100.00;99714.16;5052312;28;20025;-66
2022/09/28 10:30:01;;;;;;;1.63;0.30;;;;;;;13.85;100.00;99713.25;5039237;28;20086;-66
2022/09/28 10:32:39;;;;;;;1.88;0.38;;;;;;;14.06;100.00;99706.78;5040861;28;20060;-66
2022/09/28 10:35:13;;;;;;;1.23;0.35;;;;;;;14.45;100.00;99710.50;5045335;28;20055;-66
2022/09/28 10:38:05;;;;;;;3.78;0.50;;;;;;;14.84;100.00;99710.72;5051894;28;20028;-65
2022/09/28 10:40:46;;;;;;;0.77;0.30;;;;;;;15.27;100.00;99716.06;5048860;28;20032;-65
2022/09/28 10:43:14;;;;;;;0.85;0.20;;;;;;;15.61;100.00;99715.31;5048978;28;20033;-65
2022/09/28 10:45:40;;;;;;;3.05;0.10;;;;;;;15.51;100.00;99719.97;5048198;28;20029;-65
2022/09/28 10:48:16;;;;;;;0.28;0.10;;;;;;;15.69;98.52;99721.31;5051302;28;20036;-65
2022/09/28 10:50:42;;;;;;;1.15;0.40;;;;;;;15.90;100.00;99711.16;5041562;28;20389;-67
2022/09/28 10:53:19;;;;;;;1.67;0.32;;;;;;;16.05;100.00;99705.50;5044544;28;20025;-67
2022/09/28 10:56:00;;;;;;;3.83;0.35;;;;;;;15.90;99.18;99706.75;5051495;28;20063;-66
2022/09/28 10:58:40;;;;;;;2.47;0.60;;;;;;;15.81;100.00;99707.81;5047947;28;20025;-65
2022/09/28 11:01:19;;;;;;;3.42;0.38;;;;;;;15.86;100.00;99699.75;5047166;28;20037;-64
2022/09/28 11:03:56;;;;;;;0.60;0.20;;;;;;;15.73;100.00;99704.44;5051639;28;20104;-65
2022/09/28 11:06:25;;;;;;;1.35;0.50;;;;;;;15.75;100.00;99707.94;5052240;28;20048;-66
2022/09/28 11:08:53;;;;;;;0.85;0.30;;;;;;;16.01;100.00;99703.84;5042359;28;20021;-66
2022/09/28 11:11:19;;;;;;;3.40;0.30;;;;;;;16.06;100.00;99693.97;5061828;28;20468;-66
2022/09/28 11:13:52;;;;;;;2.30;0.30;;;;;;;15.90;100.00;99703.19;5071580;28;20092;-65
2022/09/28 11:16:24;;;;;;;1.55;0.47;;;;;;;15.42;98.69;99704.25;5068390;28;20417;-65
2022/09/28 11:18:50;;;;;;;0.50;0.30;;;;;;;14.81;97.67;99702.84;5070871;28;20048;-66
2022/09/28 11:21:20;;;;;;;1.25;0.40;;;;;;;14.56;97.21;99712.13;5073216;28;20063;-65
2022/09/28 11:24:19;;;;;;;0.70;0.28;;;;;;;14.16;97.53;99709.25;5067942;28;20036;-66
2022/09/28 11:26:48;;;;;;;1.80;0.40;;;;;;;13.79;100.00;99717.75;5047118;28;20369;-66
2022/09/28 11:29:37;;;;;;;3.05;0.52;;;;;;;13.60;100.00;99708.34;5062651;28;20123;-66
2022/09/28 11:32:05;;;;;;;2.65;0.98;;;;;;;13.49;100.00;99717.28;5064673;28;20103;-65
2022/09/28 11:34:36;;;;;;;1.35;0.30;;;;;;;13.34;100.00;99714.81;5071215;28;20028;-65
2022/09/28 11:37:13;;;;;;;0.98;0.50;;;;;;;13.31;100.00;99728.09;5053188;28;20502;-65
2022/09/28 11:39:52;;;;;;;0.85;0.40;;;;;;;13.28;100.00;99717.53;5071317;28;20038;-65
2022/09/28 11:42:52;;;;;;;2.17;0.40;;;;;;;13.27;100.00;99715.81;5069734;28;20103;-66
2022/09/28 11:45:26;;;;;;;0.20;0.20;;;;;;;13.27;100.00;99715.81;5069383;28;20028;-67
2022/09/28 11:48:03;;;;;;;2.88;0.38;;;;;;;13.25;100.00;99718.47;5067084;28;20025;-66
2022/09/28 11:50:53;;;;;;;0.30;0.20;;;;;;;13.23;100.00;99714.09;5068924;28;20032;-66
2022/09/28 11:53:29;;;;;;;0.28;0.25;;;;;;;13.19;100.00;99710.59;5069429;28;20032;-67
2022/09/28 11:56:09;;;;;;;1.63;0.30;;;;;;;13.15;100.00;99712.41;5071048;28;20035;-67
2022/09/28 11:58:43;;;;;;;4.00;0.40;;;;;;;13.13;100.00;99710.66;5069154;28;20036;-67
2022/09/28 12:01:37;;;;;;;1.52;0.30;;;;;;;13.49;100.00;99712.00;5068139;28;20039;-67